createdAt,value
2022-11-04T00:01:47.434Z,7.37
2022-11-04T00:04:16.225Z,4.90
2022-11-04T00:06:45.535Z,4.20
2022-11-04T00:09:19.396Z,3.73
2022-11-04T00:12:05.133Z,3.23
2022-11-04T00:14:33.661Z,3.30
2022-11-04T00:17:19.380Z,2.60
2022-11-04T00:20:05.880Z,2.90
2022-11-04T00:22:51.867Z,3.23
2022-11-04T00:28:30.770Z,2.30
2022-11-04T00:31:19.517Z,2.33
2022-11-04T00:33:46.789Z,1.60
2022-11-04T00:36:15.008Z,1.57
2022-11-04T00:38:43.202Z,1.73
2022-11-04T00:41:27.301Z,1.33
2022-11-04T00:43:56.273Z,1.33
2022-11-04T00:46:24.553Z,1.10
2022-11-04T00:48:52.767Z,1.47
2022-11-04T00:51:21.749Z,1.20
2022-11-04T00:53:50.234Z,1.40
2022-11-04T00:56:19.743Z,1.27
2022-11-04T00:58:49.526Z,0.90
2022-11-04T01:01:18.799Z,0.80
2022-11-04T01:03:47.579Z,2.60
2022-11-04T01:06:15.884Z,1.50
2022-11-04T01:08:44.089Z,1.70
2022-11-04T01:11:12.731Z,1.77
2022-11-04T01:13:42.349Z,1.93
2022-11-04T01:16:11.527Z,2.47
2022-11-04T01:18:39.716Z,2.67
2022-11-04T01:21:08.727Z,3.30
2022-11-04T01:23:37.306Z,4.10
2022-11-04T01:26:06.795Z,5.00
2022-11-04T01:28:35.027Z,4.97
2022-11-04T01:33:46.370Z,4.67
2022-11-04T01:36:14.648Z,5.33
2022-11-04T01:38:43.059Z,5.20
2022-11-04T01:41:13.677Z,5.93
2022-11-04T01:43:45.644Z,5.93
2022-11-04T01:46:19.368Z,6.57
2022-11-04T01:48:47.823Z,6.67
2022-11-04T01:51:16.593Z,6.33
2022-11-04T01:53:45.655Z,6.30
2022-11-04T01:56:15.829Z,6.53
2022-11-04T01:58:46.880Z,6.43
2022-11-04T02:01:16.681Z,6.50
2022-11-04T02:03:48.879Z,6.43
2022-11-04T02:06:17.582Z,6.03
2022-11-04T02:08:46.146Z,5.57
2022-11-04T02:11:34.567Z,6.03
2022-11-04T02:14:02.025Z,6.27
2022-11-04T02:16:36.644Z,5.87
2022-11-04T02:19:10.724Z,5.37
2022-11-04T02:21:58.930Z,5.67
2022-11-04T02:24:35.415Z,5.83
2022-11-04T02:27:18.499Z,5.53
2022-11-04T02:30:01.612Z,6.17
2022-11-04T02:32:36.012Z,5.60
2022-11-04T02:35:05.641Z,5.53
2022-11-04T02:37:38.210Z,5.30
2022-11-04T02:40:18.474Z,5.67
2022-11-04T02:42:50.073Z,5.43
2022-11-04T02:45:19.646Z,6.20
2022-11-04T02:47:52.792Z,5.40
2022-11-04T02:50:24.608Z,5.70
2022-11-04T02:52:57.730Z,5.83
2022-11-04T02:55:28.367Z,5.93
2022-11-04T02:57:58.569Z,5.80
2022-11-04T03:00:26.975Z,6.10
2022-11-04T03:02:59.228Z,6.37
2022-11-04T03:05:28.932Z,6.73
2022-11-04T03:07:59.392Z,6.20
2022-11-04T03:10:30.248Z,7.00
2022-11-04T03:13:00.361Z,7.07
2022-11-04T03:15:30.848Z,6.90
2022-11-04T03:18:03.925Z,8.00
2022-11-04T03:20:32.556Z,7.73
2022-11-04T03:23:01.250Z,9.10
2022-11-04T03:25:34.191Z,9.50
2022-11-04T03:28:04.262Z,9.80
2022-11-04T03:30:39.207Z,9.63
2022-11-04T03:33:13.238Z,9.77
2022-11-04T03:35:41.472Z,9.77
2022-11-04T03:38:09.759Z,9.83
2022-11-04T03:40:38.444Z,9.50
2022-11-04T03:43:09.492Z,9.60
2022-11-04T03:45:38.567Z,9.50
2022-11-04T03:48:07.364Z,9.60
2022-11-04T03:50:41.850Z,9.57
2022-11-04T03:53:10.897Z,8.93
2022-11-04T03:55:43.711Z,10.27
2022-11-04T03:58:18.895Z,8.43
2022-11-04T04:00:51.286Z,9.50
2022-11-04T04:03:20.549Z,8.17
2022-11-04T04:05:53.153Z,11.57
2022-11-04T04:08:24.511Z,8.40
2022-11-04T04:10:58.997Z,8.47
2022-11-04T04:13:32.816Z,8.53
2022-11-04T04:16:02.868Z,7.90
2022-11-04T04:18:33.751Z,9.23
2022-11-04T04:21:06.198Z,8.10
2022-11-04T04:23:53.662Z,8.50
2022-11-04T04:26:40.840Z,9.13
2022-11-04T04:29:09.853Z,7.90
2022-11-04T04:31:51.450Z,8.43
2022-11-04T04:34:20.997Z,7.77
2022-11-04T04:36:52.917Z,9.80
2022-11-04T04:39:41.094Z,7.90
2022-11-04T04:42:28.004Z,8.67
2022-11-04T04:45:03.426Z,8.03
2022-11-04T04:47:35.166Z,8.57
2022-11-04T04:50:03.718Z,9.13
2022-11-04T04:52:34.718Z,8.00
2022-11-04T04:55:02.989Z,8.27
2022-11-04T04:57:31.383Z,7.93
2022-11-04T04:59:59.680Z,7.53
2022-11-04T05:02:28.031Z,8.13
2022-11-04T05:04:56.384Z,8.57
2022-11-04T05:07:24.770Z,10.27
2022-11-04T05:09:54.474Z,10.27
2022-11-04T05:12:22.925Z,11.70
2022-11-04T05:14:51.501Z,7.97
2022-11-04T05:17:19.729Z,7.97
2022-11-04T05:19:48.457Z,8.43
2022-11-04T05:22:16.886Z,8.27
2022-11-04T05:24:45.357Z,11.50
2022-11-04T05:27:15.009Z,8.17
2022-11-04T05:29:43.283Z,8.93
2022-11-04T05:32:11.577Z,8.93
2022-11-04T05:34:39.956Z,8.80
2022-11-04T05:37:08.636Z,8.47
2022-11-04T05:39:36.927Z,8.77
2022-11-04T05:42:05.289Z,7.77
2022-11-04T05:44:34.973Z,8.33
2022-11-04T05:47:03.297Z,10.67
2022-11-04T05:49:31.662Z,9.87
2022-11-04T05:51:59.979Z,11.03
2022-11-04T05:54:28.451Z,11.10
2022-11-04T05:56:56.867Z,14.63
2022-11-04T05:59:26.287Z,11.80
2022-11-04T06:01:56.637Z,10.67
2022-11-04T06:04:25.254Z,9.73
2022-11-04T06:06:53.715Z,11.50
2022-11-04T06:09:38.973Z,9.40
2022-11-04T06:12:08.479Z,8.47
2022-11-04T06:14:36.961Z,10.80
2022-11-04T06:17:07.007Z,9.03
2022-11-04T06:19:35.541Z,11.10
2022-11-04T06:22:04.034Z,7.47
2022-11-04T06:24:32.365Z,9.77
2022-11-04T06:27:00.771Z,8.90
2022-11-04T06:29:29.278Z,8.63
2022-11-04T06:31:57.712Z,9.20
2022-11-04T06:34:27.791Z,8.80
2022-11-04T06:36:56.073Z,10.73
2022-11-04T06:39:24.734Z,10.37
2022-11-04T06:41:54.539Z,9.10
2022-11-04T06:44:25.298Z,9.23
2022-11-04T06:46:53.675Z,8.13
2022-11-04T06:49:23.181Z,9.27
2022-11-04T06:51:53.100Z,7.33
2022-11-04T06:54:21.658Z,10.20
2022-11-04T06:56:50.119Z,7.73
2022-11-04T06:59:19.545Z,11.80
2022-11-04T07:01:48.505Z,11.27
2022-11-04T07:04:16.891Z,12.07
2022-11-04T07:06:45.384Z,10.97
2022-11-04T07:09:15.910Z,11.33
2022-11-04T07:11:44.669Z,9.83
2022-11-04T07:14:13.419Z,7.93
2022-11-04T07:16:41.736Z,12.07
2022-11-04T07:19:10.467Z,10.73
2022-11-04T07:21:38.844Z,8.60
2022-11-04T07:24:07.597Z,9.93
2022-11-04T07:26:37.396Z,10.73
2022-11-04T07:29:06.755Z,10.27
2022-11-04T07:31:35.096Z,10.03
2022-11-04T07:34:03.362Z,9.70
2022-11-04T07:36:33.141Z,9.17
2022-11-04T07:39:02.374Z,8.23
2022-11-04T07:41:30.633Z,8.80
2022-11-04T07:44:01.217Z,9.67
2022-11-04T07:46:29.498Z,10.10
2022-11-04T07:48:59.164Z,12.10
2022-11-04T07:51:28.004Z,10.17
2022-11-04T07:53:57.117Z,8.97
2022-11-04T07:56:25.597Z,11.57
2022-11-04T07:58:54.004Z,10.57
2022-11-04T08:01:24.351Z,12.83
2022-11-04T08:03:52.763Z,7.67
2022-11-04T08:06:21.941Z,12.97
2022-11-04T08:08:54.120Z,12.27
2022-11-04T08:11:24.817Z,7.67
2022-11-04T08:13:53.300Z,8.50
2022-11-04T08:16:23.166Z,7.67
2022-11-04T08:18:53.734Z,6.77
2022-11-04T08:21:22.469Z,8.73
2022-11-04T08:23:51.572Z,8.97
2022-11-04T08:26:20.727Z,9.17
2022-11-04T08:28:49.415Z,10.60
2022-11-04T08:31:18.875Z,10.27
2022-11-04T08:33:47.230Z,9.80
2022-11-04T08:36:18.869Z,9.03
2022-11-04T08:38:47.517Z,7.83
2022-11-04T08:41:16.489Z,9.40
2022-11-04T08:43:44.860Z,8.83
2022-11-04T08:46:13.994Z,8.63
2022-11-04T08:48:43.132Z,8.30
2022-11-04T08:51:14.076Z,10.20
2022-11-04T08:53:43.985Z,8.37
2022-11-04T08:56:13.648Z,6.17
2022-11-04T08:58:42.372Z,5.57
2022-11-04T09:01:11.802Z,7.23
2022-11-04T09:03:40.320Z,6.13
2022-11-04T09:06:09.380Z,5.60
2022-11-04T09:08:39.165Z,8.47
2022-11-04T09:11:09.935Z,4.87
2022-11-04T09:13:39.841Z,10.70
2022-11-04T09:16:09.468Z,5.27
2022-11-04T09:18:38.033Z,5.67
2022-11-04T09:21:07.483Z,6.13
2022-11-04T09:23:36.216Z,12.67
2022-11-04T09:26:10.440Z,7.33
2022-11-04T09:28:40.402Z,5.67
2022-11-04T09:31:11.711Z,5.57
2022-11-04T09:33:40.194Z,7.37
2022-11-04T09:36:09.219Z,5.27
2022-11-04T09:38:37.753Z,6.30
2022-11-04T09:41:12.036Z,8.63
2022-11-04T09:43:47.205Z,8.30
2022-11-04T09:46:15.735Z,22.07
2022-11-04T09:48:45.387Z,4.37
2022-11-04T09:51:32.490Z,7.67
2022-11-04T09:54:03.966Z,9.07
2022-11-04T09:56:35.151Z,4.87
2022-11-04T09:59:04.550Z,9.03
2022-11-04T10:04:41.932Z,7.77
2022-11-04T10:07:19.777Z,8.33
2022-11-04T10:09:53.217Z,19.77
2022-11-04T10:12:26.558Z,8.63
2022-11-04T10:15:04.567Z,8.63
2022-11-04T10:17:40.851Z,6.03
2022-11-04T10:20:17.082Z,7.35
2022-11-04T10:22:50.902Z,5.45
2022-11-04T10:25:23.358Z,4.85
2022-11-04T10:27:53.831Z,6.18
2022-11-04T10:30:23.118Z,5.05
2022-11-04T10:32:59.693Z,5.32
2022-11-04T10:35:32.222Z,11.85
2022-11-04T10:38:03.603Z,4.85
2022-11-04T10:40:38.734Z,9.35
2022-11-04T10:43:10.627Z,6.97
2022-11-04T10:45:42.030Z,10.25
2022-11-04T10:48:14.219Z,5.68
2022-11-04T10:50:48.733Z,7.95
2022-11-04T10:53:23.364Z,5.78
2022-11-04T10:55:56.263Z,8.02
2022-11-04T10:58:27.411Z,8.43
2022-11-04T11:00:57.765Z,8.48
2022-11-04T11:03:33.533Z,6.77
2022-11-04T11:06:19.772Z,6.83
2022-11-04T11:08:48.377Z,9.10
2022-11-04T11:11:16.855Z,5.43
2022-11-04T11:13:47.521Z,6.57
2022-11-04T11:16:19.923Z,5.80
2022-11-04T11:19:08.972Z,6.00
2022-11-04T11:21:44.901Z,5.70
2022-11-04T11:24:16.827Z,14.00
2022-11-04T11:26:48.946Z,15.93
2022-11-04T11:29:25.524Z,7.30
2022-11-04T11:31:54.987Z,7.10
2022-11-04T11:34:27.352Z,5.67
2022-11-04T11:36:58.936Z,6.15
2022-11-04T11:39:29.126Z,7.55
2022-11-04T11:41:59.322Z,6.90
2022-11-04T11:44:31.831Z,6.05
2022-11-04T11:47:01.918Z,4.80
2022-11-04T11:49:31.215Z,5.60
2022-11-04T11:52:19.204Z,7.30
2022-11-04T11:54:49.522Z,5.70
2022-11-04T11:57:26.933Z,6.40
2022-11-04T12:02:49.860Z,4.75
2022-11-04T12:11:15.145Z,9.40
2022-11-04T12:13:46.193Z,6.38
2022-11-04T12:16:21.111Z,9.50
2022-11-04T12:18:58.217Z,5.00
2022-11-04T12:21:33.379Z,5.90
2022-11-04T12:24:06.889Z,5.40
2022-11-04T12:26:39.080Z,6.00
2022-11-04T12:29:16.391Z,6.53
2022-11-04T12:31:52.579Z,6.63
2022-11-04T12:34:26.835Z,4.23
2022-11-04T12:37:02.024Z,6.60
2022-11-04T12:39:44.842Z,4.43
2022-11-04T12:42:23.052Z,10.53
2022-11-04T12:44:58.643Z,6.47
2022-11-04T12:47:35.489Z,9.07
2022-11-04T12:50:08.358Z,5.03
2022-11-04T12:52:53.257Z,6.60
2022-11-04T12:55:31.228Z,5.87
2022-11-04T12:58:03.344Z,9.13
2022-11-04T13:00:33.146Z,8.43
2022-11-04T13:03:02.844Z,5.27
2022-11-04T13:05:35.389Z,5.40
2022-11-04T13:08:11.308Z,5.23
2022-11-04T13:10:45.498Z,6.03
2022-11-04T13:13:16.189Z,8.20
2022-11-04T13:15:48.087Z,7.17
2022-11-04T13:18:19.006Z,9.23
2022-11-04T13:20:50.151Z,4.67
2022-11-04T13:23:20.694Z,6.07
2022-11-04T13:25:50.970Z,5.00
2022-11-04T13:28:20.938Z,7.07
2022-11-04T13:30:52.216Z,5.73
2022-11-04T13:33:24.104Z,7.80
2022-11-04T13:35:58.512Z,6.80
2022-11-04T13:38:30.139Z,4.13
2022-11-04T13:41:11.249Z,8.07
2022-11-04T13:43:42.899Z,3.20
2022-11-04T13:46:23.720Z,6.90
2022-11-04T13:48:57.044Z,6.27
2022-11-04T13:51:25.603Z,6.30
2022-11-04T13:53:55.453Z,6.23
2022-11-04T13:56:33.913Z,6.17
2022-11-04T13:59:10.228Z,5.47
2022-11-04T14:01:38.689Z,6.67
2022-11-04T14:04:08.795Z,5.57
2022-11-04T14:06:54.064Z,6.60
2022-11-04T14:09:40.446Z,4.47
2022-11-04T14:12:36.135Z,5.37
2022-11-04T14:15:17.341Z,6.33
2022-11-04T14:18:07.928Z,5.93
2022-11-04T14:21:00.521Z,9.33
2022-11-04T14:23:30.379Z,7.23
2022-11-04T14:26:03.086Z,8.07
2022-11-04T14:28:32.128Z,7.70
2022-11-04T14:31:01.872Z,4.90
2022-11-04T14:33:51.675Z,6.57
2022-11-04T14:36:37.334Z,7.17
2022-11-04T14:39:27.182Z,9.30
2022-11-04T14:41:57.798Z,14.77
2022-11-04T14:44:32.188Z,6.73
2022-11-04T14:47:02.790Z,7.80
2022-11-04T14:49:42.217Z,8.00
2022-11-04T14:52:17.790Z,8.53
2022-11-04T14:54:48.283Z,6.63
2022-11-04T14:57:21.043Z,8.43
2022-11-04T14:59:49.958Z,7.57
2022-11-04T15:02:20.363Z,10.47
2022-11-04T15:04:49.978Z,8.07
2022-11-04T15:07:39.182Z,5.97
2022-11-04T15:10:22.566Z,6.90
2022-11-04T15:12:55.121Z,12.17
2022-11-04T15:15:30.901Z,4.83
2022-11-04T15:18:01.345Z,5.63
2022-11-04T15:20:31.222Z,6.50
2022-11-04T15:23:00.801Z,8.13
2022-11-04T15:25:30.720Z,8.03
2022-11-04T15:27:59.339Z,6.90
2022-11-04T15:30:29.534Z,7.50
2022-11-04T15:33:00.168Z,6.47
2022-11-04T15:35:30.598Z,9.80
2022-11-04T15:38:01.361Z,8.87
2022-11-04T15:40:32.726Z,6.10
2022-11-04T15:43:03.407Z,7.67
2022-11-04T15:45:36.410Z,7.80
2022-11-04T15:48:25.520Z,7.73
2022-11-04T15:50:55.297Z,5.73
2022-11-04T15:53:25.073Z,9.00
2022-11-04T15:55:55.901Z,10.27
2022-11-04T15:58:27.773Z,6.60
2022-11-04T16:00:58.803Z,11.47
2022-11-04T16:03:27.708Z,8.47
2022-11-04T16:06:06.275Z,11.80
2022-11-04T16:08:36.772Z,10.67
2022-11-04T16:11:14.850Z,8.63
2022-11-04T16:13:44.451Z,11.03
2022-11-04T16:16:23.131Z,12.90
2022-11-04T16:18:53.533Z,12.57
2022-11-04T16:21:24.934Z,8.90
2022-11-04T16:23:54.877Z,12.57
2022-11-04T16:26:27.490Z,8.87
2022-11-04T16:28:58.468Z,11.73
2022-11-04T16:31:28.485Z,14.57
2022-11-04T16:33:57.427Z,10.67
2022-11-04T16:36:30.900Z,10.70
2022-11-04T16:39:03.804Z,9.93
2022-11-04T16:41:35.243Z,10.27
2022-11-04T16:44:05.525Z,10.53
2022-11-04T16:46:35.167Z,7.73
2022-11-04T16:49:03.571Z,5.40
2022-11-04T16:51:34.835Z,6.73
2022-11-04T16:54:03.816Z,5.20
2022-11-04T16:56:35.294Z,13.63
2022-11-04T16:59:03.824Z,8.80
2022-11-04T17:01:34.603Z,7.20
2022-11-04T17:04:04.648Z,7.47
2022-11-04T17:06:33.240Z,6.70
2022-11-04T17:09:02.349Z,7.37
2022-11-04T17:11:31.051Z,4.37
2022-11-04T17:14:01.010Z,5.77
2022-11-04T17:16:30.284Z,6.03
2022-11-04T17:18:58.975Z,6.00
2022-11-04T17:21:27.525Z,6.60
2022-11-04T17:23:59.791Z,6.87
2022-11-04T17:26:28.527Z,2.67
2022-11-04T17:28:59.983Z,3.33
2022-11-04T17:31:30.310Z,6.27
2022-11-04T17:33:58.790Z,5.77
2022-11-04T17:36:27.287Z,4.43
2022-11-04T17:38:57.965Z,6.77
2022-11-04T17:41:44.230Z,6.50
2022-11-04T17:44:13.014Z,8.30
2022-11-04T17:46:48.705Z,8.10
2022-11-04T17:49:18.855Z,7.70
2022-11-04T17:51:48.359Z,7.83
2022-11-04T17:54:17.139Z,5.87
2022-11-04T17:56:45.801Z,6.47
2022-11-04T17:59:14.718Z,6.57
2022-11-04T18:01:48.751Z,10.37
2022-11-04T18:04:26.608Z,7.87
2022-11-04T18:06:59.945Z,7.07
2022-11-04T18:09:31.347Z,8.90
2022-11-04T18:12:17.690Z,8.40
2022-11-04T18:14:46.426Z,10.00
2022-11-04T18:17:24.644Z,7.80
2022-11-04T18:19:53.213Z,5.63
2022-11-04T18:22:21.704Z,5.63
2022-11-04T18:24:51.557Z,6.23
2022-11-04T18:27:20.104Z,6.57
2022-11-04T18:29:48.707Z,3.17
2022-11-04T18:32:18.584Z,6.83
2022-11-04T18:34:50.931Z,5.27
2022-11-04T18:37:19.619Z,5.20
2022-11-04T18:39:48.310Z,5.80
2022-11-04T18:42:16.852Z,5.83
2022-11-04T18:44:47.746Z,6.97
2022-11-04T18:47:16.256Z,6.73
2022-11-04T18:49:46.423Z,11.07
2022-11-04T18:52:14.808Z,8.33
2022-11-04T18:54:44.927Z,8.27
2022-11-04T18:57:13.647Z,11.67
2022-11-04T18:59:42.103Z,7.13
2022-11-04T19:02:11.674Z,10.33
2022-11-04T19:04:40.057Z,9.57
2022-11-04T19:07:09.983Z,10.03
2022-11-04T19:09:46.676Z,13.17
2022-11-04T19:12:33.507Z,10.80
2022-11-04T19:15:04.062Z,13.67
2022-11-04T19:17:32.905Z,15.27
2022-11-04T19:20:11.462Z,14.07
2022-11-04T19:22:42.822Z,14.43
2022-11-04T19:25:12.178Z,14.53
2022-11-04T19:27:40.676Z,13.83
2022-11-04T19:30:09.925Z,14.50
2022-11-04T19:32:38.373Z,12.77
2022-11-04T19:35:07.255Z,14.43
2022-11-04T19:37:35.748Z,12.17
2022-11-04T19:40:06.229Z,12.63
2022-11-04T19:42:52.152Z,13.20
2022-11-04T19:45:20.624Z,13.90
2022-11-04T19:47:49.168Z,17.47
2022-11-04T19:50:18.292Z,14.73
2022-11-04T19:52:49.174Z,15.40
2022-11-04T19:57:48.102Z,13.67
2022-11-04T20:00:16.729Z,14.67
2022-11-04T20:02:45.456Z,14.80
2022-11-04T20:05:14.725Z,13.07
2022-11-04T20:07:43.174Z,14.57
2022-11-04T20:10:12.586Z,15.93
2022-11-04T20:12:58.747Z,14.00
2022-11-04T20:15:28.781Z,14.93
2022-11-04T20:17:57.280Z,17.03
2022-11-04T20:20:25.875Z,16.23
2022-11-04T20:22:54.461Z,13.33
2022-11-04T20:25:24.670Z,15.00
2022-11-04T20:27:53.246Z,13.97
2022-11-04T20:30:21.599Z,14.27
2022-11-04T20:32:51.365Z,14.63
2022-11-04T20:35:20.178Z,17.10
2022-11-04T20:37:50.276Z,14.03
2022-11-04T20:40:18.685Z,17.57
2022-11-04T20:42:48.963Z,14.37
2022-11-04T20:45:17.670Z,17.17
2022-11-04T20:47:47.458Z,15.67
2022-11-04T20:50:17.637Z,17.47
2022-11-04T20:52:46.270Z,15.33
2022-11-04T20:55:15.011Z,18.03
2022-11-04T20:57:45.948Z,19.00
2022-11-04T21:00:15.069Z,16.10
2022-11-04T21:02:43.675Z,13.93
2022-11-04T21:05:12.527Z,15.77
2022-11-04T21:07:42.845Z,14.80
2022-11-04T21:10:11.509Z,17.60
2022-11-04T21:12:39.937Z,17.13
2022-11-04T21:15:29.934Z,15.17
2022-11-04T21:17:58.542Z,16.87
2022-11-04T21:20:27.486Z,14.07
2022-11-04T21:22:57.588Z,17.13
2022-11-04T21:25:26.959Z,20.03
2022-11-04T21:27:56.469Z,16.67
2022-11-04T21:30:28.958Z,15.33
2022-11-04T21:33:00.554Z,19.40
2022-11-04T21:35:29.145Z,17.77
2022-11-04T21:37:59.102Z,22.67
2022-11-04T21:40:27.641Z,15.57
2022-11-04T21:42:56.201Z,17.13
2022-11-04T21:45:24.689Z,15.33
2022-11-04T21:47:55.334Z,16.00
2022-11-04T21:50:26.088Z,12.57
2022-11-04T21:52:57.635Z,13.57
2022-11-04T21:55:30.050Z,13.40
2022-11-04T21:57:58.680Z,12.73
2022-11-04T22:00:27.162Z,11.97
2022-11-04T22:02:56.230Z,16.50
2022-11-04T22:05:25.497Z,11.87
2022-11-04T22:08:11.734Z,16.37
2022-11-04T22:10:42.183Z,12.90
2022-11-04T22:13:11.416Z,13.33
2022-11-04T22:15:57.780Z,13.53
2022-11-04T22:18:26.466Z,15.20
2022-11-04T22:20:55.157Z,12.70
2022-11-04T22:23:23.705Z,12.83
2022-11-04T22:25:53.913Z,11.93
2022-11-04T22:28:22.457Z,15.10
2022-11-04T22:30:50.911Z,13.73
2022-11-04T22:33:19.480Z,13.37
2022-11-04T22:35:48.244Z,10.00
2022-11-04T22:38:17.005Z,9.67
2022-11-04T22:40:45.395Z,11.63
2022-11-04T22:43:15.146Z,13.47
2022-11-04T22:45:43.502Z,10.73
2022-11-04T22:48:12.035Z,8.67
2022-11-04T22:50:40.386Z,10.93
2022-11-04T22:53:09.220Z,13.07
2022-11-04T22:55:38.270Z,14.27
2022-11-04T22:58:06.804Z,13.43
2022-11-04T23:00:36.574Z,11.57
2022-11-04T23:03:05.390Z,14.37
2022-11-04T23:05:34.076Z,13.27
2022-11-04T23:08:03.474Z,10.20
2022-11-04T23:10:49.895Z,10.83
2022-11-04T23:13:36.038Z,10.43
2022-11-04T23:16:24.196Z,10.70
2022-11-04T23:18:53.493Z,10.00
2022-11-04T23:21:41.326Z,11.37
2022-11-04T23:24:39.192Z,12.37
2022-11-04T23:27:08.498Z,12.20
2022-11-04T23:29:54.515Z,13.43
2022-11-04T23:32:27.249Z,10.67
2022-11-04T23:35:13.895Z,10.83
2022-11-04T23:37:42.684Z,9.83
2022-11-04T23:40:11.563Z,11.63
2022-11-04T23:42:40.328Z,9.50
2022-11-04T23:45:26.648Z,9.37
2022-11-04T23:48:15.220Z,11.20
2022-11-04T23:51:01.391Z,12.07
2022-11-04T23:53:47.286Z,12.57
2022-11-04T23:56:33.182Z,9.03
2022-11-04T23:59:19.202Z,9.10
